createdAt,value
2023-05-14T00:00:29.893Z,9.52
2023-05-14T00:03:59.981Z,9.61
2023-05-14T00:07:33.189Z,9.71
2023-05-14T00:16:27.291Z,9.84
2023-05-14T00:19:51.765Z,9.90
2023-05-14T00:23:11.625Z,9.97
2023-05-14T00:26:16.889Z,10.01
2023-05-14T00:30:02.854Z,10.04
2023-05-14T00:33:08.459Z,10.04
2023-05-14T00:36:40.767Z,10.02
2023-05-14T00:40:01.317Z,10.02
2023-05-14T00:43:06.693Z,10.02
2023-05-14T00:46:12.660Z,10.03
2023-05-14T00:49:18.999Z,10.04
2023-05-14T00:52:46.191Z,10.04
2023-05-14T00:56:03.973Z,10.04
2023-05-14T00:59:09.728Z,10.05
2023-05-14T01:02:27.937Z,10.06
2023-05-14T01:06:26.559Z,10.06
2023-05-14T01:09:46.333Z,10.07
2023-05-14T01:13:09.616Z,10.07
2023-05-14T01:16:16.968Z,10.07
2023-05-14T01:19:48.327Z,10.08
2023-05-14T01:22:56.862Z,10.11
2023-05-14T01:26:04.516Z,10.12
2023-05-14T01:29:22.039Z,10.13
2023-05-14T01:32:34.741Z,10.13
2023-05-14T01:35:40.736Z,10.14
2023-05-14T01:38:49.882Z,10.14
2023-05-14T01:41:59.612Z,10.13
2023-05-14T01:45:07.560Z,10.13
2023-05-14T01:48:17.216Z,10.12
2023-05-14T01:51:37.146Z,10.10
2023-05-14T01:54:44.640Z,10.08
2023-05-14T01:57:57.207Z,10.04
2023-05-14T02:01:23.099Z,10.01
2023-05-14T02:04:30.325Z,9.98
2023-05-14T02:07:38.910Z,9.98
2023-05-14T02:11:18.833Z,9.99
2023-05-14T02:14:29.830Z,9.97
2023-05-14T02:17:57.270Z,9.94
2023-05-14T02:21:26.155Z,9.91
2023-05-14T02:24:54.326Z,9.85
2023-05-14T02:28:26.466Z,9.79
2023-05-14T02:31:39.648Z,9.69
2023-05-14T02:34:47.486Z,9.59
2023-05-14T02:37:52.263Z,9.48
2023-05-14T02:40:55.053Z,9.40
2023-05-14T02:44:05.776Z,9.34
2023-05-14T02:47:10.861Z,9.29
2023-05-14T02:50:13.874Z,9.25
2023-05-14T02:53:16.803Z,9.23
2023-05-14T02:56:35.629Z,9.20
2023-05-14T02:59:45.561Z,9.17
2023-05-14T03:03:17.062Z,9.14
2023-05-14T03:06:40.711Z,9.14
2023-05-14T03:10:12.876Z,9.14
2023-05-14T03:13:28.636Z,9.14
2023-05-14T03:16:33.566Z,9.15
2023-05-14T03:19:44.695Z,9.21
2023-05-14T03:27:53.243Z,9.54
2023-05-14T03:31:02.367Z,9.68
2023-05-14T03:34:06.395Z,9.89
2023-05-14T03:37:24.654Z,9.99
2023-05-14T03:40:36.601Z,10.03
2023-05-14T03:43:43.519Z,10.09
2023-05-14T03:46:50.935Z,10.07
2023-05-14T03:49:58.568Z,10.27
2023-05-14T03:53:17.225Z,10.56
2023-05-14T03:56:26.355Z,10.78
2023-05-14T03:59:36.206Z,11.22
2023-05-14T04:02:41.402Z,11.79
2023-05-14T04:05:46.491Z,12.64
2023-05-14T04:08:54.244Z,13.50
2023-05-14T04:12:01.286Z,14.31
2023-05-14T04:15:05.854Z,14.90
2023-05-14T04:18:20.277Z,15.61
2023-05-14T04:21:25.248Z,16.20
2023-05-14T04:24:36.553Z,16.85
2023-05-14T04:27:40.770Z,17.30
2023-05-14T04:30:53.528Z,17.69
2023-05-14T04:33:57.280Z,18.03
2023-05-14T04:37:00.086Z,18.34
2023-05-14T04:40:06.196Z,18.53
2023-05-14T04:43:09.474Z,18.78
2023-05-14T04:46:28.959Z,18.50
2023-05-14T04:49:33.839Z,17.86
2023-05-14T04:53:01.842Z,17.51
2023-05-14T04:56:08.452Z,17.24
2023-05-14T04:59:13.807Z,17.12
2023-05-14T05:02:18.042Z,17.06
2023-05-14T05:05:25.042Z,17.00
2023-05-14T05:08:29.488Z,16.93
2023-05-14T05:11:32.419Z,16.85
2023-05-14T05:14:35.307Z,16.77
2023-05-14T05:17:40.588Z,16.82
2023-05-14T05:20:47.494Z,16.94
2023-05-14T05:23:51.060Z,16.99
2023-05-14T05:26:55.835Z,17.08
2023-05-14T05:29:59.137Z,17.20
2023-05-14T05:33:02.121Z,17.25
2023-05-14T05:36:10.068Z,17.35
2023-05-14T05:39:35.000Z,17.53
2023-05-14T05:42:48.802Z,17.64
2023-05-14T05:46:12.060Z,17.60
2023-05-14T05:49:15.018Z,17.67
2023-05-14T05:52:17.803Z,17.75
2023-05-14T05:55:20.802Z,17.81
2023-05-14T05:58:24.199Z,17.89
2023-05-14T06:01:27.384Z,17.96
2023-05-14T06:04:38.828Z,18.00
2023-05-14T06:07:49.912Z,18.23
2023-05-14T06:10:55.787Z,18.45
2023-05-14T06:13:58.661Z,18.53
2023-05-14T06:17:03.786Z,18.56
2023-05-14T06:20:10.074Z,18.70
2023-05-14T06:23:35.233Z,18.85
2023-05-14T06:26:39.972Z,18.86
2023-05-14T06:30:01.201Z,18.94
2023-05-14T06:33:40.720Z,19.10
2023-05-14T06:37:08.136Z,18.93
2023-05-14T06:40:24.800Z,19.08
2023-05-14T06:43:41.092Z,19.30
2023-05-14T06:46:48.774Z,19.33
2023-05-14T06:50:01.198Z,19.42
2023-05-14T06:53:04.892Z,19.49
2023-05-14T06:56:08.053Z,19.51
2023-05-14T06:59:40.513Z,19.51
2023-05-14T07:02:45.742Z,19.65
2023-05-14T07:05:56.160Z,19.69
2023-05-14T07:09:01.999Z,19.86
2023-05-14T07:12:10.028Z,20.00
2023-05-14T07:15:21.253Z,19.93
2023-05-14T07:18:26.064Z,19.70
2023-05-14T07:21:29.584Z,19.21
2023-05-14T07:24:32.483Z,19.20
2023-05-14T07:27:44.604Z,19.31
2023-05-14T07:31:06.003Z,19.40
2023-05-14T07:34:11.757Z,19.58
2023-05-14T07:37:14.794Z,19.65
2023-05-14T07:40:48.612Z,19.57
2023-05-14T07:44:11.552Z,19.15
2023-05-14T07:47:18.297Z,19.37
2023-05-14T07:50:27.619Z,19.46
2023-05-14T07:53:50.688Z,19.54
2023-05-14T07:56:53.732Z,19.47
2023-05-14T07:59:57.135Z,19.48
2023-05-14T08:03:00.178Z,19.43
2023-05-14T08:06:07.228Z,19.41
2023-05-14T08:09:17.600Z,19.50
2023-05-14T08:12:25.642Z,19.53
2023-05-14T08:16:11.565Z,19.51
2023-05-14T08:19:15.193Z,19.43
2023-05-14T08:22:20.919Z,19.35
2023-05-14T08:25:25.797Z,19.21
2023-05-14T08:28:28.734Z,19.07
2023-05-14T08:31:58.258Z,19.03
2023-05-14T08:35:32.273Z,19.01
2023-05-14T08:38:58.695Z,18.96
2023-05-14T08:42:21.952Z,19.03
2023-05-14T08:45:34.169Z,19.25
2023-05-14T08:48:49.220Z,19.44
2023-05-14T08:51:54.739Z,19.56
2023-05-14T08:55:00.749Z,19.68
2023-05-14T08:58:07.464Z,19.87
2023-05-14T09:01:10.318Z,20.02
2023-05-14T09:04:16.709Z,20.00
2023-05-14T09:07:55.023Z,20.01
2023-05-14T09:11:02.044Z,19.80
2023-05-14T09:14:33.319Z,19.72
2023-05-14T09:17:42.340Z,19.78
2023-05-14T09:21:08.191Z,19.88
2023-05-14T09:25:03.522Z,19.93
2023-05-14T09:28:17.632Z,20.20
2023-05-14T09:31:27.515Z,20.41
2023-05-14T09:34:41.670Z,20.68
2023-05-14T09:37:47.156Z,20.95
2023-05-14T09:40:51.950Z,21.09
2023-05-14T09:43:56.923Z,21.06
2023-05-14T09:47:00.157Z,21.22
2023-05-14T09:50:09.773Z,21.30
2023-05-14T09:53:18.610Z,21.42
2023-05-14T09:56:26.931Z,21.50
2023-05-14T09:59:36.749Z,21.49
2023-05-14T10:02:43.878Z,21.53
2023-05-14T10:05:51.494Z,21.67
2023-05-14T10:08:57.357Z,21.83
2023-05-14T10:12:01.456Z,22.05
2023-05-14T10:15:43.715Z,22.19
2023-05-14T10:19:05.161Z,22.23
2023-05-14T10:22:22.385Z,22.26
2023-05-14T10:25:31.563Z,22.33
2023-05-14T10:28:36.772Z,22.39
2023-05-14T10:31:54.266Z,22.44
2023-05-14T10:35:25.495Z,22.57
2023-05-14T10:38:35.224Z,22.63
2023-05-14T10:41:43.698Z,22.73
2023-05-14T10:44:57.781Z,22.56
2023-05-14T10:48:16.697Z,22.46
2023-05-14T10:51:28.712Z,22.46
2023-05-14T10:54:35.986Z,22.44
2023-05-14T10:57:46.347Z,22.53
2023-05-14T11:01:15.408Z,22.53
2023-05-14T11:04:42.571Z,22.39
2023-05-14T11:07:50.647Z,22.30
2023-05-14T11:10:56.541Z,22.24
2023-05-14T11:14:01.358Z,22.27
2023-05-14T11:17:10.660Z,22.25
2023-05-14T11:20:16.883Z,22.25
2023-05-14T11:23:25.372Z,22.19
2023-05-14T11:26:32.472Z,22.25
2023-05-14T11:29:46.298Z,22.13
2023-05-14T11:33:04.624Z,22.05
2023-05-14T11:36:17.752Z,21.99
2023-05-14T11:39:22.433Z,22.01
2023-05-14T11:42:27.492Z,21.98
2023-05-14T11:45:33.153Z,21.82
2023-05-14T11:48:36.508Z,21.76
2023-05-14T11:51:41.044Z,21.80
2023-05-14T11:54:49.741Z,21.96
2023-05-14T11:57:57.227Z,22.08
2023-05-14T12:01:04.387Z,22.14
2023-05-14T12:04:14.472Z,22.18
2023-05-14T12:07:29.495Z,22.32
2023-05-14T12:10:42.194Z,22.34
2023-05-14T12:13:52.907Z,22.28
2023-05-14T12:16:59.549Z,22.10
2023-05-14T12:20:04.254Z,21.93
2023-05-14T12:23:12.391Z,21.80
2023-05-14T12:26:16.702Z,21.74
2023-05-14T12:29:28.159Z,21.81
2023-05-14T12:32:36.873Z,21.74
2023-05-14T12:35:43.097Z,21.78
2023-05-14T12:39:04.378Z,21.81
2023-05-14T12:42:40.800Z,21.76
2023-05-14T12:45:56.172Z,21.77
2023-05-14T12:49:26.643Z,21.62
2023-05-14T12:52:53.091Z,21.46
2023-05-14T12:56:01.414Z,21.31
2023-05-14T12:59:05.938Z,21.13
2023-05-14T13:02:10.834Z,21.05
2023-05-14T13:05:33.888Z,20.93
2023-05-14T13:08:40.547Z,20.85
2023-05-14T13:11:45.353Z,20.81
2023-05-14T13:14:50.167Z,20.69
2023-05-14T13:17:56.630Z,20.60
2023-05-14T13:21:05.831Z,20.50
2023-05-14T13:24:20.957Z,20.39
2023-05-14T13:27:28.509Z,20.33
2023-05-14T13:30:39.053Z,20.25
2023-05-14T13:33:54.834Z,20.12
2023-05-14T13:37:00.926Z,20.08
2023-05-14T13:40:28.439Z,20.14
2023-05-14T13:43:47.111Z,20.19
2023-05-14T13:47:09.708Z,20.18
2023-05-14T13:50:23.045Z,20.03
2023-05-14T13:56:59.858Z,19.51
2023-05-14T14:00:08.945Z,19.28
2023-05-14T14:03:13.713Z,19.17
2023-05-14T14:06:35.444Z,19.03
2023-05-14T14:10:02.504Z,18.92
2023-05-14T14:13:19.040Z,18.85
2023-05-14T14:16:28.226Z,18.78
2023-05-14T14:19:40.821Z,18.67
2023-05-14T14:23:08.121Z,18.60
2023-05-14T14:26:17.857Z,18.54
2023-05-14T14:29:51.321Z,18.47
2023-05-14T14:33:07.430Z,18.37
2023-05-14T14:36:22.031Z,18.30
2023-05-14T14:39:29.168Z,18.24
2023-05-14T14:42:38.870Z,18.14
2023-05-14T14:45:49.473Z,18.03
2023-05-14T14:49:02.369Z,17.96
2023-05-14T14:52:29.828Z,17.89
2023-05-14T14:55:55.630Z,17.79
2023-05-14T14:59:17.636Z,17.64
2023-05-14T15:02:28.700Z,17.54
2023-05-14T15:05:40.521Z,17.38
2023-05-14T15:09:01.100Z,17.27
2023-05-14T15:12:25.157Z,17.15
2023-05-14T15:15:40.539Z,16.99
2023-05-14T15:18:48.323Z,16.84
2023-05-14T15:22:00.548Z,16.77
2023-05-14T15:25:58.871Z,16.64
2023-05-14T15:29:09.365Z,16.52
2023-05-14T15:32:19.656Z,16.42
2023-05-14T15:35:41.608Z,16.25
2023-05-14T15:38:52.136Z,16.00
2023-05-14T15:42:16.978Z,15.75
2023-05-14T15:45:19.860Z,15.56
2023-05-14T15:48:30.580Z,15.39
2023-05-14T15:51:42.170Z,15.20
2023-05-14T15:54:48.393Z,15.07
2023-05-14T15:57:56.401Z,14.99
2023-05-14T16:01:09.496Z,14.90
2023-05-14T16:04:17.932Z,14.74
2023-05-14T16:07:36.828Z,14.58
2023-05-14T16:10:55.749Z,14.52
2023-05-14T16:14:04.722Z,14.50
2023-05-14T16:17:32.439Z,14.47
2023-05-14T16:20:43.556Z,14.44
2023-05-14T16:24:10.674Z,14.42
2023-05-14T16:27:27.522Z,14.36
2023-05-14T16:30:32.205Z,14.25
2023-05-14T16:33:42.086Z,14.14
2023-05-14T16:37:00.934Z,14.03
2023-05-14T16:40:03.962Z,13.97
2023-05-14T16:43:07.006Z,13.89
2023-05-14T16:46:10.498Z,13.85
2023-05-14T16:49:15.302Z,13.79
2023-05-14T16:52:18.614Z,13.68
2023-05-14T16:55:22.019Z,13.62
2023-05-14T16:58:28.651Z,13.58
2023-05-14T17:01:40.787Z,13.52
2023-05-14T17:04:46.767Z,13.44
2023-05-14T17:10:53.749Z,13.31
2023-05-14T17:14:31.778Z,13.24
2023-05-14T17:18:09.231Z,13.17
2023-05-14T17:21:12.222Z,13.11
2023-05-14T17:24:30.375Z,13.06
2023-05-14T17:28:15.913Z,13.04
2023-05-14T17:31:59.169Z,13.01
2023-05-14T17:39:26.193Z,12.79
2023-05-14T18:23:36.892Z,12.96
2023-05-14T18:27:04.080Z,12.76
2023-05-14T18:41:06.673Z,13.13
2023-05-14T18:44:09.555Z,12.95
2023-05-14T18:47:13.620Z,12.70
2023-05-14T18:50:16.530Z,12.49
2023-05-14T18:53:19.515Z,12.37
2023-05-14T18:56:23.260Z,12.22
2023-05-14T18:59:27.834Z,12.01
2023-05-14T19:02:31.032Z,11.89
2023-05-14T19:05:45.649Z,11.80
2023-05-14T19:08:48.571Z,11.74
2023-05-14T19:11:51.597Z,11.68
2023-05-14T19:14:54.624Z,11.61
2023-05-14T19:17:57.819Z,11.57
2023-05-14T19:21:01.365Z,11.51
2023-05-14T19:24:12.190Z,11.47
2023-05-14T19:27:17.427Z,11.43
2023-05-14T19:30:23.425Z,11.41
2023-05-14T19:33:27.777Z,11.38
2023-05-14T19:36:36.236Z,11.35
2023-05-14T19:39:39.314Z,11.32
2023-05-14T19:42:44.048Z,11.28
2023-05-14T19:45:48.730Z,11.25
2023-05-14T19:48:53.535Z,11.21
2023-05-14T19:51:56.317Z,11.18
2023-05-14T19:55:00.388Z,11.15
2023-05-14T19:58:11.831Z,11.12
2023-05-14T20:01:36.707Z,11.08
2023-05-14T20:05:11.981Z,11.04
2023-05-14T20:08:16.807Z,11.04
2023-05-14T20:11:19.730Z,11.01
2023-05-14T20:14:22.573Z,10.99
2023-05-14T20:17:25.579Z,10.99
2023-05-14T20:20:31.143Z,10.96
2023-05-14T20:23:38.490Z,10.94
2023-05-14T20:26:43.209Z,10.94
2023-05-14T20:29:46.854Z,10.92
2023-05-14T20:32:50.338Z,10.90
2023-05-14T20:36:21.008Z,10.89
2023-05-14T20:39:25.306Z,10.86
2023-05-14T20:42:28.964Z,10.85
2023-05-14T20:45:32.008Z,10.82
2023-05-14T20:48:34.955Z,10.79
2023-05-14T20:51:40.103Z,10.76
2023-05-14T20:54:44.170Z,10.76
2023-05-14T20:57:47.121Z,10.70
2023-05-14T21:00:50.024Z,10.68
2023-05-14T21:03:53.155Z,10.66
2023-05-14T21:06:58.081Z,10.64
2023-05-14T21:10:03.983Z,10.61
2023-05-14T21:13:10.142Z,10.60
2023-05-14T21:16:13.127Z,10.61
2023-05-14T21:19:16.259Z,10.61
2023-05-14T21:22:19.205Z,10.62
2023-05-14T21:25:23.304Z,10.65
2023-05-14T21:28:27.319Z,10.67
2023-05-14T21:31:31.000Z,10.69
2023-05-14T21:34:39.899Z,10.71
2023-05-14T21:37:43.864Z,10.74
2023-05-14T21:40:48.923Z,10.77
2023-05-14T21:43:51.892Z,10.80
2023-05-14T21:46:54.926Z,10.82
2023-05-14T21:49:59.818Z,10.84
2023-05-14T21:53:04.617Z,10.85
2023-05-14T21:56:09.303Z,10.87
2023-05-14T21:59:12.293Z,10.86
2023-05-14T22:02:15.152Z,10.86
2023-05-14T22:05:22.686Z,10.87
2023-05-14T22:08:27.790Z,10.86
2023-05-14T22:11:30.612Z,10.84
2023-05-14T22:14:35.521Z,10.81
2023-05-14T22:17:39.031Z,10.79
2023-05-14T22:20:43.022Z,10.79
2023-05-14T22:23:49.896Z,10.79
2023-05-14T22:26:54.800Z,10.77
2023-05-14T22:30:04.040Z,10.78
2023-05-14T22:33:14.237Z,10.78
2023-05-14T22:36:26.021Z,10.77
2023-05-14T22:39:32.842Z,10.76
2023-05-14T22:45:44.228Z,10.78
2023-05-14T22:49:16.049Z,10.76
2023-05-14T22:52:34.879Z,10.73
2023-05-14T22:55:39.001Z,10.72
2023-05-14T22:58:41.940Z,10.72
2023-05-14T23:01:45.226Z,10.70
2023-05-14T23:04:48.375Z,10.70
2023-05-14T23:08:02.820Z,10.69
2023-05-14T23:11:06.676Z,10.69
2023-05-14T23:14:09.558Z,10.69
2023-05-14T23:17:14.474Z,10.69
2023-05-14T23:20:17.753Z,10.69
2023-05-14T23:23:26.094Z,10.68
2023-05-14T23:26:36.382Z,10.68
2023-05-14T23:29:39.205Z,10.68
2023-05-14T23:32:44.052Z,10.68
2023-05-14T23:35:58.841Z,10.68
2023-05-14T23:39:02.499Z,10.68
2023-05-14T23:42:05.744Z,10.66
2023-05-14T23:45:16.409Z,10.67
2023-05-14T23:48:22.828Z,10.67
2023-05-14T23:51:38.294Z,10.70
2023-05-14T23:54:43.045Z,10.72
2023-05-14T23:57:48.752Z,10.73
